Time;durP1;ratioP1;P1;durP2;ratioP2;P2;SDS_P1;SDS_P2;PMS_P1;PMS_P2;Temp;Humidity;BMP_temperature;BMP_pressure;BME280_temperature;BME280_humidity;BME280_pressure;Samples;Min_cycle;Max_cycle;Signal;HPM_P1;HPM_P2
2023/10/20 00:00:45;;;;;;;6.75;4.43;;;;;;;6.69;100.00;99703.31;4967886;28;20277;-46
2023/10/20 00:03:10;;;;;;;11.70;4.20;;;;;;;6.67;100.00;99691.84;4967158;28;20205;-45
2023/10/20 00:05:36;;;;;;;7.47;4.25;;;;;;;6.76;100.00;99688.81;4950913;28;20218;-46
2023/10/20 00:08:02;;;;;;;6.88;4.53;;;;;;;6.68;100.00;99690.06;4970938;28;20666;-46
2023/10/20 00:10:31;;;;;;;6.65;3.85;;;;;;;6.75;100.00;99691.53;4967555;28;20269;-44
2023/10/20 00:12:59;;;;;;;7.38;5.53;;;;;;;6.76;100.00;99693.28;4970770;28;20174;-46
2023/10/20 00:15:25;;;;;;;4.78;4.15;;;;;;;6.66;100.00;99689.25;4967556;28;20677;-46
2023/10/20 00:17:50;;;;;;;8.43;4.22;;;;;;;6.66;100.00;99684.78;4964520;28;20209;-45
2023/10/20 00:20:16;;;;;;;7.25;4.28;;;;;;;6.69;100.00;99678.47;4965806;28;20224;-46
2023/10/20 00:22:41;;;;;;;7.40;4.55;;;;;;;6.71;100.00;99681.94;4970750;28;20198;-44
2023/10/20 00:25:07;;;;;;;5.00;4.30;;;;;;;6.66;100.00;99668.81;4971117;28;20232;-45
2023/10/20 00:27:33;;;;;;;6.35;4.65;;;;;;;6.69;100.00;99679.34;4975111;28;20565;-44
2023/10/20 00:29:58;;;;;;;5.85;4.72;;;;;;;6.72;100.00;99687.19;4970727;28;20198;-47
2023/10/20 00:32:23;;;;;;;6.65;4.68;;;;;;;6.69;100.00;99667.81;4970644;28;20224;-46
2023/10/20 00:34:49;;;;;;;8.48;4.70;;;;;;;6.73;100.00;99680.94;4953798;28;20206;-47
2023/10/20 00:37:14;;;;;;;5.55;4.38;;;;;;;6.77;100.00;99687.00;4974136;28;20186;-45
2023/10/20 00:39:40;;;;;;;6.82;4.25;;;;;;;6.73;100.00;99672.94;4957362;28;20793;-45
2023/10/20 00:42:06;;;;;;;7.78;4.50;;;;;;;6.68;100.00;99682.06;4970623;28;20240;-47
2023/10/20 00:44:31;;;;;;;7.30;3.97;;;;;;;6.70;100.00;99688.19;4953591;28;20206;-46
2023/10/20 00:46:58;;;;;;;6.75;4.75;;;;;;;6.70;100.00;99701.50;4974600;28;20662;-46
2023/10/20 00:49:23;;;;;;;10.50;3.95;;;;;;;6.69;100.00;99703.31;4978846;28;20610;-46
2023/10/20 00:51:50;;;;;;;6.38;4.05;;;;;;;6.66;100.00;99705.22;4980522;28;20344;-45
2023/10/20 00:54:16;;;;;;;8.00;4.43;;;;;;;6.66;100.00;99689.25;4962612;28;20822;-47
2023/10/20 00:56:42;;;;;;;5.30;3.60;;;;;;;6.65;100.00;99690.16;4975759;28;20186;-44
2023/10/20 00:59:11;;;;;;;5.50;4.00;;;;;;;6.67;100.00;99693.63;4978501;28;20599;-46
2023/10/20 01:01:37;;;;;;;6.88;3.70;;;;;;;6.70;100.00;99689.06;4953882;28;20197;-46
2023/10/20 01:04:04;;;;;;;5.88;3.42;;;;;;;6.64;100.00;99685.78;4973007;28;20236;-45
2023/10/20 01:06:29;;;;;;;6.90;4.03;;;;;;;6.69;100.00;99683.78;4974297;28;20194;-44
2023/10/20 01:08:56;;;;;;;8.60;3.95;;;;;;;6.61;100.00;99692.09;4959103;28;20193;-47
2023/10/20 01:11:22;;;;;;;8.70;4.45;;;;;;;6.64;100.00;99699.09;4974821;28;20198;-45
2023/10/20 01:13:47;;;;;;;6.45;3.70;;;;;;;6.58;100.00;99692.19;4954885;28;20306;-46
2023/10/20 01:16:13;;;;;;;5.63;3.58;;;;;;;6.60;100.00;99695.66;4972539;28;20181;-45
2023/10/20 01:18:38;;;;;;;4.03;3.63;;;;;;;6.61;100.00;99694.75;4945219;28;20290;-47
2023/10/20 01:21:04;;;;;;;4.55;3.55;;;;;;;6.53;100.00;99696.84;4966868;28;20178;-46
2023/10/20 01:23:30;;;;;;;4.85;4.22;;;;;;;6.56;100.00;99699.41;4954727;28;20202;-45
2023/10/20 01:25:57;;;;;;;6.03;3.90;;;;;;;6.51;100.00;99704.88;4969515;28;20193;-47
2023/10/20 01:28:22;;;;;;;4.68;3.88;;;;;;;6.49;100.00;99704.06;4959800;28;20190;-47
2023/10/20 01:30:48;;;;;;;6.13;4.13;;;;;;;6.54;100.00;99698.59;4973831;28;20245;-46
2023/10/20 01:33:14;;;;;;;6.07;4.43;;;;;;;6.53;100.00;99694.19;4971488;28;20182;-48
2023/10/20 01:35:39;;;;;;;7.10;4.25;;;;;;;6.56;100.00;99688.75;4953774;28;20217;-48
2023/10/20 01:38:05;;;;;;;5.82;3.70;;;;;;;6.52;100.00;99700.44;4977486;28;20192;-45
2023/10/20 01:40:31;;;;;;;5.63;4.18;;;;;;;6.58;100.00;99690.44;4960890;28;20563;-46
2023/10/20 01:42:57;;;;;;;5.55;4.20;;;;;;;6.51;100.00;99704.88;4964836;28;20217;-46
2023/10/20 01:45:22;;;;;;;6.30;4.07;;;;;;;6.66;100.00;99707.88;4968753;28;20718;-45
2023/10/20 01:47:49;;;;;;;5.00;4.30;;;;;;;6.61;100.00;99692.09;4974787;28;20199;-45
2023/10/20 01:50:15;;;;;;;4.32;3.80;;;;;;;6.55;100.00;99695.84;4968786;28;20213;-48
2023/10/20 01:52:41;;;;;;;4.63;4.10;;;;;;;6.62;100.00;99690.28;4949710;28;20671;-47
2023/10/20 01:55:07;;;;;;;5.10;3.22;;;;;;;6.55;100.00;99679.03;4953441;28;20202;-46
2023/10/20 01:57:33;;;;;;;4.78;3.97;;;;;;;6.58;100.00;99671.81;4967011;28;20244;-46
2023/10/20 02:00:01;;;;;;;7.55;3.78;;;;;;;6.53;100.00;99662.25;4970465;28;20186;-48
2023/10/20 02:02:27;;;;;;;5.53;3.95;;;;;;;6.56;100.00;99656.84;4965031;28;20213;-48
2023/10/20 02:04:52;;;;;;;4.97;3.28;;;;;;;6.53;100.00;99646.28;4960774;28;20213;-47
2023/10/20 02:07:18;;;;;;;4.80;2.92;;;;;;;6.52;100.00;99656.06;4969507;28;20194;-46
2023/10/20 02:09:43;;;;;;;5.40;2.35;;;;;;;6.52;100.00;99648.09;4945962;28;20668;-45
2023/10/20 02:12:10;;;;;;;2.33;1.88;;;;;;;6.47;100.00;99649.19;4950202;28;20228;-46
2023/10/20 02:14:36;;;;;;;6.10;1.80;;;;;;;6.49;100.00;99652.66;4950500;28;20305;-45
2023/10/20 02:17:01;;;;;;;3.17;1.42;;;;;;;6.56;100.00;99655.03;4965442;28;20195;-44
2023/10/20 02:19:27;;;;;;;4.38;1.55;;;;;;;6.51;100.00;99638.34;4960377;28;20183;-46
2023/10/20 02:21:53;;;;;;;3.33;1.45;;;;;;;6.53;100.00;99638.31;4953352;28;20486;-46
2023/10/20 02:24:19;;;;;;;2.60;1.40;;;;;;;6.48;100.00;99642.97;4970321;28;20190;-47
2023/10/20 02:26:45;;;;;;;8.00;1.25;;;;;;;6.51;100.00;99637.50;4952810;28;20356;-45
2023/10/20 02:29:12;;;;;;;4.35;1.17;;;;;;;6.55;100.00;99639.13;4949505;28;20182;-46
2023/10/20 02:31:37;;;;;;;1.90;0.93;;;;;;;6.50;100.00;99636.66;4966687;28;20233;-45
2023/10/20 02:34:03;;;;;;;2.33;1.00;;;;;;;6.50;100.00;99631.31;4964795;28;20198;-44
2023/10/20 02:36:28;;;;;;;1.85;1.02;;;;;;;6.54;100.00;99638.25;4966654;28;20197;-46
2023/10/20 02:38:55;;;;;;;4.15;1.25;;;;;;;6.50;100.00;99641.09;4951991;28;20197;-44
2023/10/20 02:41:20;;;;;;;2.38;1.15;;;;;;;6.53;100.00;99641.81;4964925;28;20624;-43
2023/10/20 02:43:46;;;;;;;3.22;1.17;;;;;;;6.52;100.00;99657.88;4964420;28;20261;-45
2023/10/20 02:46:12;;;;;;;1.00;0.93;;;;;;;6.49;100.00;99616.28;4951946;28;20179;-44
2023/10/20 02:48:38;;;;;;;3.00;0.90;;;;;;;6.47;100.00;99627.91;4963237;28;20186;-45
2023/10/20 02:51:12;;;;;;;2.45;0.90;;;;;;;6.50;100.00;99622.47;4954953;28;20194;-44
2023/10/20 02:53:39;;;;;;;3.67;1.20;;;;;;;6.45;100.00;99612.03;4946457;28;20191;-43
2023/10/20 02:56:19;;;;;;;3.25;1.00;;;;;;;6.47;100.00;99614.59;4950945;28;20185;-45
2023/10/20 02:58:45;;;;;;;2.25;0.95;;;;;;;6.44;100.00;99617.41;4964303;28;20193;-43
2023/10/20 03:01:15;;;;;;;1.65;0.90;;;;;;;6.40;100.00;99606.00;4963829;28;20206;-45
2023/10/20 03:03:41;;;;;;;2.50;1.13;;;;;;;6.40;100.00;99614.00;4962328;28;20223;-44
2023/10/20 03:06:07;;;;;;;3.75;1.45;;;;;;;6.39;100.00;99604.28;4954547;28;20595;-42
2023/10/20 03:08:32;;;;;;;1.35;1.00;;;;;;;6.35;100.00;99631.94;4962999;28;20800;-44
2023/10/20 03:10:58;;;;;;;4.15;1.15;;;;;;;6.38;100.00;99595.47;4969991;28;20702;-45
2023/10/20 03:13:25;;;;;;;2.97;1.20;;;;;;;6.37;100.00;99593.72;4966385;28;20178;-43
2023/10/20 03:15:52;;;;;;;1.40;1.02;;;;;;;6.40;100.00;99598.03;4961038;28;20216;-45
2023/10/20 03:18:17;;;;;;;2.20;1.20;;;;;;;6.40;100.00;99641.44;4960896;28;20572;-45
2023/10/20 03:20:43;;;;;;;3.53;1.10;;;;;;;6.45;100.00;99604.03;4966874;28;20194;-45
2023/10/20 03:23:16;;;;;;;6.00;1.42;;;;;;;6.49;100.00;99605.63;4947162;28;20206;-45
2023/10/20 03:25:42;;;;;;;4.43;1.50;;;;;;;6.44;100.00;99599.63;4945017;28;20295;-45
2023/10/20 03:28:08;;;;;;;2.72;1.52;;;;;;;6.40;100.00;99603.34;4959106;28;20174;-45
2023/10/20 03:30:38;;;;;;;4.47;1.35;;;;;;;6.38;100.00;99595.47;4965475;28;20235;-45
2023/10/20 03:33:05;;;;;;;4.35;1.73;;;;;;;6.38;100.00;99597.22;4962793;28;20182;-45
2023/10/20 03:35:31;;;;;;;1.90;1.75;;;;;;;6.43;100.00;99589.94;4961414;28;20720;-45
2023/10/20 03:37:58;;;;;;;3.15;1.88;;;;;;;6.45;100.00;99600.50;4962834;28;20260;-46
2023/10/20 03:40:30;;;;;;;3.15;2.15;;;;;;;6.46;100.00;99595.13;4964132;28;20195;-45
2023/10/20 03:42:59;;;;;;;4.43;2.45;;;;;;;6.44;100.00;99582.81;4947598;28;20250;-45
2023/10/20 03:45:25;;;;;;;3.20;2.67;;;;;;;6.46;100.00;99588.94;4962758;28;20577;-45
2023/10/20 03:47:51;;;;;;;6.50;3.03;;;;;;;6.46;100.00;99604.91;4951863;28;20250;-46
2023/10/20 03:50:17;;;;;;;3.58;2.72;;;;;;;6.49;100.00;99594.13;4963660;28;20282;-43
2023/10/20 03:52:46;;;;;;;3.75;2.70;;;;;;;6.51;100.00;99601.09;4963623;28;20244;-45
2023/10/20 03:55:15;;;;;;;3.97;2.78;;;;;;;6.49;100.00;99602.97;4966030;28;20213;-44
2023/10/20 03:57:44;;;;;;;6.72;2.78;;;;;;;6.53;100.00;99583.28;4950054;28;20178;-45
2023/10/20 04:00:29;;;;;;;10.05;2.58;;;;;;;6.44;100.00;99591.66;4964079;28;20503;-45
2023/10/20 04:02:58;;;;;;;4.10;2.55;;;;;;;6.41;100.00;99581.16;4961411;28;20499;-45
2023/10/20 04:05:25;;;;;;;4.28;2.55;;;;;;;6.41;100.00;99578.50;4965433;28;20221;-44
2023/10/20 04:07:51;;;;;;;5.55;2.63;;;;;;;6.43;100.00;99583.72;4963176;28;20178;-45
2023/10/20 04:10:18;;;;;;;8.90;2.38;;;;;;;6.50;100.00;99570.13;4963685;28;20186;-44
2023/10/20 04:12:44;;;;;;;5.65;3.03;;;;;;;6.43;100.00;99563.34;4963198;28;20241;-44
2023/10/20 04:15:19;;;;;;;5.45;2.72;;;;;;;6.39;100.00;99564.38;4966640;28;20198;-45
2023/10/20 04:17:54;;;;;;;6.45;2.70;;;;;;;6.43;100.00;99563.34;4959800;28;20699;-45
2023/10/20 04:20:21;;;;;;;5.72;2.63;;;;;;;6.40;100.00;99552.81;4961270;28;20220;-44
2023/10/20 04:22:50;;;;;;;9.40;2.83;;;;;;;6.43;100.00;99552.69;4962442;28;20700;-44
2023/10/20 04:25:17;;;;;;;7.28;3.03;;;;;;;6.43;100.00;99560.69;4961993;28;20292;-44
2023/10/20 04:27:49;;;;;;;4.95;2.90;;;;;;;6.42;100.00;99577.56;4963824;28;20198;-42
2023/10/20 04:54:51;;;;;;;5.55;2.70;;;;;;;6.49;100.00;99515.16;4956008;28;20619;-47
2023/10/20 05:08:16;;;;;;;3.50;2.00;;;;;;;6.44;100.00;99503.00;4959835;28;20257;-47
2023/10/20 05:10:43;;;;;;;6.70;1.73;;;;;;;6.53;100.00;99481.31;4962720;28;20175;-46
2023/10/20 05:13:08;;;;;;;6.72;1.60;;;;;;;6.48;100.00;99478.84;4969345;28;20664;-47
2023/10/20 05:15:38;;;;;;;6.80;2.05;;;;;;;6.44;100.00;99485.25;4965122;28;20198;-45
2023/10/20 05:18:05;;;;;;;4.75;1.33;;;;;;;6.39;100.00;99481.91;4967527;28;20194;-46
2023/10/20 05:20:34;;;;;;;2.10;1.35;;;;;;;6.44;100.00;99476.41;4965945;28;20264;-46
2023/10/20 05:23:00;;;;;;;3.58;1.63;;;;;;;6.43;100.00;99472.88;4966867;28;20268;-44
2023/10/20 05:25:26;;;;;;;4.75;1.10;;;;;;;6.44;100.00;99474.59;4964885;28;20307;-49
2023/10/20 05:27:51;;;;;;;4.85;1.13;;;;;;;6.44;100.00;99474.59;4965692;28;20194;-50
2023/10/20 05:30:17;;;;;;;6.55;1.30;;;;;;;6.48;100.00;99462.03;4969258;28;20221;-48
2023/10/20 05:32:43;;;;;;;4.63;1.75;;;;;;;6.40;100.00;99471.19;4964515;28;20191;-47
2023/10/20 05:35:09;;;;;;;3.33;1.67;;;;;;;6.40;100.00;99491.63;4965604;28;20695;-49
2023/10/20 05:37:35;;;;;;;4.15;1.75;;;;;;;6.39;100.00;99477.47;4960186;28;20218;-47
2023/10/20 05:40:00;;;;;;;3.63;1.63;;;;;;;6.38;100.00;99490.81;4967330;28;20590;-49
2023/10/20 05:42:26;;;;;;;6.15;1.90;;;;;;;6.39;100.00;99485.44;4963086;28;20225;-49
2023/10/20 05:45:10;;;;;;;4.85;1.40;;;;;;;6.34;100.00;99458.19;4951628;28;20326;-48
2023/10/20 05:47:39;;;;;;;3.40;1.65;;;;;;;6.42;100.00;99464.97;4953687;28;20183;-47
2023/10/20 05:50:05;;;;;;;5.85;1.65;;;;;;;6.37;100.00;99460.69;4950765;28;20193;-48
2023/10/20 05:52:31;;;;;;;6.45;1.55;;;;;;;6.35;100.00;99451.91;4965724;28;20198;-49
2023/10/20 05:54:57;;;;;;;4.28;1.80;;;;;;;6.37;100.00;99460.69;4961886;28;20194;-48
2023/10/20 05:57:23;;;;;;;9.25;1.85;;;;;;;6.36;100.00;99452.78;4963507;28;20186;-48
2023/10/20 05:59:49;;;;;;;4.13;1.75;;;;;;;6.39;100.00;99444.69;4964148;28;20190;-49
2023/10/20 06:02:15;;;;;;;1.42;1.20;;;;;;;6.39;100.00;99480.13;4960278;28;20544;-47
2023/10/20 06:04:41;;;;;;;10.30;1.50;;;;;;;6.36;100.00;99466.06;4965521;28;20202;-49
2023/10/20 06:07:07;;;;;;;1.50;1.15;;;;;;;6.36;100.00;99463.41;4962265;28;20186;-49
2023/10/20 06:09:33;;;;;;;6.15;1.75;;;;;;;6.45;100.00;99467.47;4962452;28;20217;-49
2023/10/20 06:11:59;;;;;;;4.32;1.40;;;;;;;6.34;100.00;99463.50;4963947;28;20189;-48
2023/10/20 06:14:25;;;;;;;3.97;1.42;;;;;;;6.35;100.00;99498.94;4965410;28;20201;-47
2023/10/20 06:16:51;;;;;;;3.05;1.77;;;;;;;6.31;100.00;99455.63;4962846;28;20233;-49
2023/10/20 06:19:17;;;;;;;2.45;1.40;;;;;;;6.34;100.00;99482.13;4959683;28;20179;-48
2023/10/20 06:21:42;;;;;;;2.95;1.20;;;;;;;6.35;100.00;99494.47;4958912;28;20244;-47
2023/10/20 06:24:08;;;;;;;6.18;1.38;;;;;;;6.30;100.00;99443.28;4959613;28;20252;-46
2023/10/20 06:26:34;;;;;;;2.30;1.05;;;;;;;6.32;100.00;99476.00;4958843;28;20217;-45
2023/10/20 06:29:00;;;;;;;4.07;1.30;;;;;;;6.33;100.00;99447.59;4963206;28;20186;-47
2023/10/20 06:34:13;;;;;;;3.42;0.90;;;;;;;6.39;100.00;99444.69;4963074;28;20608;-47
2023/10/20 06:36:46;;;;;;;6.50;1.50;;;;;;;6.43;100.00;99432.97;4960436;28;20202;-47
2023/10/20 06:39:13;;;;;;;3.85;1.08;;;;;;;6.51;100.00;99441.47;4961665;28;20170;-46
2023/10/20 06:41:39;;;;;;;2.08;1.05;;;;;;;6.62;100.00;99424.16;4942377;28;20587;-45
2023/10/20 06:44:05;;;;;;;5.25;1.40;;;;;;;6.66;100.00;99433.75;4944797;28;20221;-46
2023/10/20 06:46:31;;;;;;;5.20;1.17;;;;;;;6.69;100.00;99446.91;4959905;28;20614;-46
2023/10/20 06:48:57;;;;;;;6.10;1.15;;;;;;;6.71;100.00;99437.94;4963097;28;20184;-45
2023/10/20 06:51:25;;;;;;;12.77;1.60;;;;;;;6.70;100.00;99430.03;4950776;28;20703;-46
2023/10/20 06:53:50;;;;;;;7.38;1.55;;;;;;;6.61;100.00;99447.25;4963389;28;20189;-47
2023/10/20 06:56:17;;;;;;;8.40;1.38;;;;;;;6.66;100.00;99447.06;4961571;28;20189;-45
2023/10/20 06:58:42;;;;;;;6.70;1.48;;;;;;;6.64;100.00;99444.44;4958038;28;20182;-45
2023/10/20 07:01:08;;;;;;;7.10;1.25;;;;;;;6.64;100.00;99443.59;4957110;28;20285;-47
2023/10/20 07:03:33;;;;;;;4.03;1.30;;;;;;;6.69;100.00;99417.63;4956281;28;20293;-47
2023/10/20 07:06:00;;;;;;;5.15;1.33;;;;;;;6.68;100.00;99414.09;4957907;28;20284;-45
2023/10/20 07:08:26;;;;;;;3.78;1.25;;;;;;;6.69;100.00;99410.53;4959289;28;20659;-45
2023/10/20 07:10:52;;;;;;;5.43;1.45;;;;;;;6.76;100.00;99409.31;4961645;28;20197;-46
2023/10/20 07:13:18;;;;;;;3.83;1.30;;;;;;;6.82;100.00;99418.78;4964139;28;20305;-46
2023/10/20 07:15:44;;;;;;;6.57;1.30;;;;;;;6.86;100.00;99416.88;4964821;28;20286;-46
2023/10/20 07:18:13;;;;;;;6.90;1.25;;;;;;;6.87;100.00;99395.50;4963263;28;20584;-45
2023/10/20 07:20:38;;;;;;;5.60;1.30;;;;;;;6.83;100.00;99385.94;4959312;28;20197;-45
2023/10/20 07:23:07;;;;;;;4.80;1.58;;;;;;;6.79;100.00;99376.34;4960995;28;20201;-45
2023/10/20 07:25:34;;;;;;;5.47;1.60;;;;;;;6.82;100.00;99378.88;4963611;28;20293;-45
2023/10/20 07:27:59;;;;;;;8.68;1.17;;;;;;;6.87;100.00;99384.00;4961718;28;20190;-46
2023/10/20 07:30:28;;;;;;;3.83;1.20;;;;;;;6.88;100.00;99388.38;4961069;28;20202;-45
2023/10/20 07:32:53;;;;;;;7.65;1.75;;;;;;;6.90;100.00;99392.69;4965363;28;20198;-46
2023/10/20 07:35:19;;;;;;;5.90;1.40;;;;;;;6.86;100.00;99395.56;4964155;28;20202;-47
2023/10/20 07:37:44;;;;;;;4.95;1.23;;;;;;;6.72;100.00;99381.09;4965024;28;20174;-46
2023/10/20 07:40:10;;;;;;;3.58;1.58;;;;;;;6.73;100.00;99372.16;4958901;28;20269;-45
2023/10/20 07:42:38;;;;;;;9.43;1.67;;;;;;;6.69;100.00;99375.03;4947735;28;20203;-47
2023/10/20 07:45:06;;;;;;;6.40;1.38;;;;;;;6.72;100.00;99386.44;4963872;28;20591;-47
2023/10/20 07:47:32;;;;;;;3.85;1.10;;;;;;;6.75;100.00;99398.72;4966981;28;20244;-45
2023/10/20 07:49:58;;;;;;;4.68;1.15;;;;;;;6.81;100.00;99385.13;4966589;28;20308;-46
2023/10/20 07:52:24;;;;;;;2.97;1.20;;;;;;;6.82;100.00;99389.50;4960310;28;20188;-46
2023/10/20 07:54:49;;;;;;;3.35;0.90;;;;;;;6.88;100.00;99397.22;4957242;28;20688;-46
2023/10/20 07:57:18;;;;;;;4.13;1.00;;;;;;;6.92;100.00;99398.81;4962927;28;20190;-46
2023/10/20 07:59:44;;;;;;;3.25;0.98;;;;;;;7.00;100.00;99393.16;4960228;28;20269;-46
2023/10/20 08:02:10;;;;;;;4.68;0.98;;;;;;;7.06;100.00;99391.97;4957321;28;20276;-46
2023/10/20 08:04:41;;;;;;;4.97;0.95;;;;;;;7.09;100.00;99381.19;4963481;28;20204;-46
2023/10/20 08:07:07;;;;;;;3.15;1.17;;;;;;;7.13;100.00;99372.13;4962830;28;20225;-46
2023/10/20 08:09:33;;;;;;;2.13;0.77;;;;;;;7.09;100.00;99355.44;4962034;28;20253;-45
2023/10/20 08:11:59;;;;;;;2.63;0.80;;;;;;;7.01;100.00;99385.06;4956860;28;20241;-45
2023/10/20 08:14:27;;;;;;;2.35;0.90;;;;;;;7.10;100.00;99369.59;4959895;28;20677;-45
2023/10/20 08:16:53;;;;;;;1.73;0.85;;;;;;;7.08;100.00;99369.66;4966240;28;20301;-48
2023/10/20 08:19:19;;;;;;;2.83;1.00;;;;;;;7.05;100.00;99372.47;4961760;28;20626;-46
2023/10/20 08:21:44;;;;;;;2.38;0.95;;;;;;;7.18;100.00;99354.13;4963816;28;20284;-47
2023/10/20 08:24:10;;;;;;;4.65;0.70;;;;;;;7.29;100.00;99369.59;4964611;28;20217;-45
2023/10/20 08:26:36;;;;;;;2.70;0.40;;;;;;;7.27;100.00;99348.34;4961454;28;20191;-46
2023/10/20 08:29:12;;;;;;;3.83;0.70;;;;;;;7.26;100.00;99349.31;4959677;28;20201;-46
2023/10/20 08:31:39;;;;;;;6.45;0.90;;;;;;;7.32;100.00;99359.63;4957338;28;20209;-46
2023/10/20 08:34:05;;;;;;;2.33;0.90;;;;;;;7.35;100.00;99335.53;4963819;28;20288;-47
2023/10/20 08:36:30;;;;;;;2.97;0.68;;;;;;;7.36;100.00;99355.88;4959319;28;20746;-45
2023/10/20 08:39:01;;;;;;;2.38;0.70;;;;;;;7.36;100.00;99345.22;4960321;28;20183;-44
2023/10/20 08:41:27;;;;;;;2.10;0.60;;;;;;;7.32;100.00;99348.97;4963986;28;20204;-47
2023/10/20 08:43:55;;;;;;;2.90;1.05;;;;;;;7.23;100.00;99339.63;4962499;28;20267;-46
2023/10/20 08:46:23;;;;;;;2.92;0.80;;;;;;;7.11;100.00;99350.91;4960520;28;20183;-46
2023/10/20 08:48:49;;;;;;;4.18;0.98;;;;;;;6.96;100.00;99375.59;4964570;28;20186;-46
2023/10/20 08:51:17;;;;;;;3.45;0.90;;;;;;;6.82;100.00;99357.56;4968965;28;20174;-47
2023/10/20 08:53:43;;;;;;;7.07;1.17;;;;;;;6.79;100.00;99355.06;4964092;28;20672;-47
2023/10/20 08:56:10;;;;;;;8.60;0.93;;;;;;;6.72;100.00;99365.13;4965146;28;20186;-46
2023/10/20 08:58:36;;;;;;;5.13;1.15;;;;;;;6.68;100.00;99368.88;4961525;28;20182;-46
2023/10/20 09:01:04;;;;;;;2.50;0.82;;;;;;;6.68;100.00;99365.34;4962244;28;20707;-46
2023/10/20 09:03:39;;;;;;;2.97;0.88;;;;;;;6.65;100.00;99374.34;4965312;28;20206;-47
2023/10/20 09:06:12;;;;;;;4.53;1.05;;;;;;;6.74;100.00;99367.72;4965789;28;20189;-46
2023/10/20 09:08:37;;;;;;;4.28;0.88;;;;;;;6.75;100.00;99375.63;4964176;28;20643;-46
2023/10/20 09:11:07;;;;;;;6.28;1.08;;;;;;;6.74;100.00;99399.69;4962159;28;20182;-47
2023/10/20 09:13:35;;;;;;;4.07;1.00;;;;;;;6.73;100.00;99401.44;4963638;28;20181;-48
2023/10/20 09:16:03;;;;;;;5.32;1.00;;;;;;;6.75;100.00;99362.31;4963163;28;20194;-45
2023/10/20 09:18:31;;;;;;;1.92;0.90;;;;;;;6.76;100.00;99369.38;4946156;28;20566;-46
2023/10/20 09:21:05;;;;;;;3.42;1.30;;;;;;;6.83;100.00;99374.44;4963494;28;20625;-45
2023/10/20 09:23:32;;;;;;;3.20;0.75;;;;;;;6.77;100.00;99357.78;4959749;28;20726;-46
2023/10/20 09:25:58;;;;;;;5.47;1.33;;;;;;;6.77;100.00;99338.31;4962344;28;20193;-46
2023/10/20 09:28:24;;;;;;;4.70;1.05;;;;;;;6.74;100.00;99341.13;4962382;28;20225;-46
2023/10/20 09:30:50;;;;;;;3.30;1.10;;;;;;;6.85;100.00;99348.59;4963051;28;20178;-46
2023/10/20 09:33:15;;;;;;;3.90;0.90;;;;;;;6.81;100.00;99351.38;4964485;28;20187;-48
2023/10/20 09:35:42;;;;;;;3.85;0.80;;;;;;;6.79;100.00;99318.66;4964529;28;20217;-46
2023/10/20 09:38:15;;;;;;;5.45;1.02;;;;;;;6.85;100.00;99306.88;4963442;28;20621;-46
2023/10/20 09:40:42;;;;;;;5.22;1.60;;;;;;;6.87;100.00;99309.47;4962743;28;20182;-44
2023/10/20 09:43:30;;;;;;;3.75;1.00;;;;;;;6.87;100.00;99318.31;4965011;28;20242;-46
2023/10/20 09:46:07;;;;;;;2.42;0.85;;;;;;;6.89;100.00;99313.78;4963100;28;20559;-45
2023/10/20 09:48:34;;;;;;;2.67;0.75;;;;;;;6.97;100.00;99321.38;4963447;28;20186;-45
2023/10/20 09:51:00;;;;;;;4.22;0.90;;;;;;;6.93;100.00;99328.66;4963493;28;20191;-44
2023/10/20 09:53:26;;;;;;;3.45;0.90;;;;;;;6.94;100.00;99343.69;4962215;28;20209;-44
2023/10/20 09:55:52;;;;;;;5.57;0.90;;;;;;;6.99;100.00;99316.84;4963663;28;20336;-43
2023/10/20 09:58:27;;;;;;;4.50;1.10;;;;;;;7.02;100.00;99319.38;4964878;28;20209;-46
2023/10/20 10:00:55;;;;;;;7.40;1.17;;;;;;;7.06;100.00;99298.78;4963796;28;20188;-48
2023/10/20 10:03:37;;;;;;;5.80;1.27;;;;;;;7.01;100.00;99273.22;4964871;28;20201;-46
2023/10/20 10:06:07;;;;;;;5.78;1.10;;;;;;;7.04;100.00;99297.97;4965855;28;20528;-46
2023/10/20 10:08:33;;;;;;;2.75;0.90;;;;;;;7.10;100.00;99287.03;4959951;28;20569;-46
2023/10/20 10:10:59;;;;;;;6.90;1.05;;;;;;;7.12;100.00;99294.00;4962887;28;20204;-47
2023/10/20 10:13:36;;;;;;;4.32;1.73;;;;;;;7.08;100.00;99334.19;4961656;28;20178;-47
2023/10/20 10:16:10;;;;;;;2.55;1.08;;;;;;;7.09;100.00;99282.66;4964331;28;20209;-45
2023/10/20 10:18:45;;;;;;;4.57;2.45;;;;;;;7.01;100.00;99289.22;4955568;28;20194;-45
2023/10/20 10:21:24;;;;;;;4.82;1.15;;;;;;;7.02;100.00;99266.13;4964435;28;20643;-46
2023/10/20 10:24:13;;;;;;;5.90;1.50;;;;;;;7.06;100.00;99323.59;4964853;28;20218;-47
2023/10/20 10:26:58;;;;;;;1.75;0.90;;;;;;;7.06;100.00;99304.09;4963107;28;20178;-44
2023/10/20 10:30:00;;;;;;;3.72;1.20;;;;;;;7.08;100.00;99305.75;4966082;28;20210;-44
2023/10/20 10:32:33;;;;;;;5.63;2.05;;;;;;;7.05;100.00;99300.59;4966065;28;20256;-45
2023/10/20 10:35:01;;;;;;;5.43;1.92;;;;;;;7.00;100.00;99294.63;4963288;28;20230;-47
2023/10/20 10:37:30;;;;;;;3.25;1.38;;;;;;;7.03;100.00;99310.44;4965294;28;20190;-45
2023/10/20 10:40:07;;;;;;;2.15;1.00;;;;;;;7.10;100.00;99322.50;4963101;28;20555;-46
2023/10/20 10:42:52;;;;;;;4.13;1.63;;;;;;;7.10;100.00;99269.25;4964384;28;20762;-44
2023/10/20 10:45:34;;;;;;;3.40;1.30;;;;;;;7.05;100.00;99265.09;4962563;28;20207;-46
2023/10/20 10:48:14;;;;;;;3.05;1.25;;;;;;;7.14;100.00;99276.16;4962580;28;20260;-45
2023/10/20 10:50:41;;;;;;;8.35;1.23;;;;;;;7.06;100.00;99262.34;4963718;28;20194;-45
2023/10/20 10:53:08;;;;;;;3.70;1.33;;;;;;;7.06;100.00;99257.03;4962618;28;20554;-45
2023/10/20 10:55:35;;;;;;;6.50;1.40;;;;;;;7.06;100.00;99267.69;4962415;28;20221;-47
2023/10/20 10:58:02;;;;;;;4.13;1.25;;;;;;;7.05;100.00;99271.28;4963983;28;20624;-44
2023/10/20 11:00:28;;;;;;;9.80;1.10;;;;;;;7.10;100.00;99265.72;4965040;28;20581;-45
2023/10/20 11:02:56;;;;;;;5.60;1.25;;;;;;;7.06;100.00;99257.03;4964998;28;20210;-45
2023/10/20 11:05:21;;;;;;;7.80;1.50;;;;;;;7.08;100.00;99265.81;4962574;28;20225;-45
2023/10/20 11:08:03;;;;;;;4.15;1.23;;;;;;;7.08;100.00;99280.94;4965944;28;20213;-44
2023/10/20 11:10:37;;;;;;;6.32;1.50;;;;;;;7.04;100.00;99261.59;4961198;28;20182;-44
2023/10/20 11:13:10;;;;;;;3.72;1.20;;;;;;;7.07;100.00;99258.75;4962744;28;20197;-47
2023/10/20 11:15:37;;;;;;;4.85;1.65;;;;;;;7.00;100.00;99247.56;4962105;28;20726;-45
2023/10/20 11:18:05;;;;;;;5.70;1.33;;;;;;;6.91;100.00;99263.97;4960992;28;20272;-46
2023/10/20 11:20:38;;;;;;;2.15;1.48;;;;;;;6.96;100.00;99267.28;4964590;28;20276;-45
2023/10/20 11:23:08;;;;;;;7.80;1.52;;;;;;;6.90;100.00;99277.34;4962407;28;20682;-45
2023/10/20 11:25:34;;;;;;;4.45;1.48;;;;;;;6.96;100.00;99283.25;4962238;28;20207;-44
2023/10/20 11:28:02;;;;;;;4.95;1.13;;;;;;;6.95;100.00;99246.94;4963768;28;20179;-46
2023/10/20 11:30:42;;;;;;;3.35;1.10;;;;;;;6.93;100.00;99231.94;4961280;28;20178;-45
2023/10/20 11:33:10;;;;;;;3.33;0.85;;;;;;;6.90;100.00;99246.25;4965643;28;20181;-44
2023/10/20 11:35:36;;;;;;;4.32;1.33;;;;;;;6.84;100.00;99254.53;4962551;28;20293;-45
2023/10/20 11:38:03;;;;;;;3.58;1.15;;;;;;;6.80;100.00;99245.00;4963957;28;20231;-45
2023/10/20 11:40:28;;;;;;;4.75;1.20;;;;;;;6.92;100.00;99248.88;4961628;28;20197;-45
2023/10/20 11:42:55;;;;;;;7.55;1.58;;;;;;;7.00;100.00;99279.50;4964235;28;20198;-46
2023/10/20 11:45:21;;;;;;;5.32;1.10;;;;;;;6.98;100.00;99264.53;4965708;28;20796;-45
2023/10/20 11:47:46;;;;;;;2.25;1.00;;;;;;;7.07;100.00;99224.16;4952890;28;20272;-45
2023/10/20 11:50:13;;;;;;;5.32;1.48;;;;;;;7.10;100.00;99257.75;4962895;28;20180;-44
2023/10/20 11:52:40;;;;;;;4.60;1.15;;;;;;;7.09;99.46;99232.06;4960125;28;20189;-46
2023/10/20 11:55:09;;;;;;;5.38;1.05;;;;;;;7.14;98.07;99246.00;4967176;28;20292;-46
2023/10/20 11:57:36;;;;;;;4.93;1.20;;;;;;;7.14;96.99;99227.38;4964723;28;20292;-45
2023/10/20 12:00:07;;;;;;;3.83;1.05;;;;;;;6.96;96.95;99198.03;4965810;28;20188;-46
2023/10/20 12:02:40;;;;;;;2.97;0.82;;;;;;;7.07;96.69;99202.00;4961070;28;20256;-46
2023/10/20 12:05:07;;;;;;;6.43;1.80;;;;;;;7.13;96.62;99194.56;4961885;28;20233;-46
2023/10/20 12:07:33;;;;;;;6.72;1.15;;;;;;;7.14;96.13;99190.94;4950759;28;20239;-46
2023/10/20 12:09:58;;;;;;;5.07;1.13;;;;;;;7.07;96.21;99188.66;4958726;28;20955;-47
2023/10/20 12:12:24;;;;;;;4.30;1.15;;;;;;;7.07;96.44;99180.69;4964688;28;20180;-46
2023/10/20 12:14:50;;;;;;;6.10;1.55;;;;;;;6.97;96.79;99210.41;4961450;28;20261;-46